createdAt,value
2017-10-05T00:00:42.530Z,2.30
2017-10-05T00:03:17.108Z,2.53
2017-10-05T00:05:51.663Z,2.23
2017-10-05T00:08:26.246Z,3.00
2017-10-05T00:11:00.829Z,2.07
2017-10-05T00:13:35.288Z,2.13
2017-10-05T00:16:09.870Z,3.40
2017-10-05T00:18:44.303Z,2.20
2017-10-05T00:21:18.912Z,3.83
2017-10-05T00:23:53.555Z,3.33
2017-10-05T00:26:28.975Z,3.73
2017-10-05T00:31:43.526Z,3.67
2017-10-05T00:34:18.182Z,3.03
2017-10-05T00:36:52.774Z,3.37
2017-10-05T00:39:27.362Z,3.40
2017-10-05T00:42:01.938Z,3.80
2017-10-05T00:44:42.171Z,3.80
2017-10-05T00:47:22.762Z,3.30
2017-10-05T00:49:57.194Z,4.37
2017-10-05T00:52:31.883Z,3.67
2017-10-05T00:55:15.239Z,4.10
2017-10-05T00:57:48.981Z,3.80
2017-10-05T01:00:22.822Z,5.57
2017-10-05T01:02:58.110Z,4.20
2017-10-05T01:05:32.734Z,4.67
2017-10-05T01:08:07.470Z,4.90
2017-10-05T01:10:41.651Z,4.07
2017-10-05T01:13:15.788Z,4.27
2017-10-05T01:15:50.234Z,4.47
2017-10-05T01:18:24.955Z,3.80
2017-10-05T01:20:59.201Z,3.50
2017-10-05T01:23:33.447Z,4.17
2017-10-05T01:26:07.750Z,3.57
2017-10-05T01:28:41.854Z,3.17
2017-10-05T01:31:16.146Z,3.07
2017-10-05T01:33:51.453Z,3.07
2017-10-05T01:36:26.080Z,3.60
2017-10-05T01:39:00.594Z,3.50
2017-10-05T01:41:35.168Z,3.70
2017-10-05T01:44:09.783Z,4.40
2017-10-05T01:46:44.409Z,3.77
2017-10-05T01:49:19.587Z,4.60
2017-10-05T01:51:53.742Z,3.73
2017-10-05T01:54:28.227Z,3.80
2017-10-05T01:57:02.799Z,3.93
2017-10-05T01:59:37.344Z,4.20
2017-10-05T02:02:11.957Z,3.40
2017-10-05T02:04:47.452Z,4.47
2017-10-05T02:07:21.874Z,3.80
2017-10-05T02:09:56.426Z,3.60
2017-10-05T02:12:30.956Z,3.23
2017-10-05T02:15:14.475Z,3.47
2017-10-05T02:17:48.977Z,3.73
2017-10-05T02:20:23.562Z,4.70
2017-10-05T02:22:58.250Z,3.70
2017-10-05T02:25:32.790Z,3.03
2017-10-05T02:28:07.293Z,3.27
2017-10-05T02:30:41.853Z,4.27
2017-10-05T02:33:16.282Z,4.00
2017-10-05T02:35:50.855Z,3.33
2017-10-05T02:38:25.522Z,4.43
2017-10-05T02:41:00.158Z,3.10
2017-10-05T02:43:35.590Z,3.40
2017-10-05T02:46:10.215Z,3.80
2017-10-05T02:48:44.650Z,3.43
2017-10-05T02:51:19.143Z,2.80
2017-10-05T02:53:53.847Z,2.33
2017-10-05T02:56:28.430Z,2.73
2017-10-05T02:59:02.995Z,2.00
2017-10-05T03:01:37.537Z,1.80
2017-10-05T03:04:12.135Z,2.27
2017-10-05T03:06:46.725Z,1.83
2017-10-05T03:09:21.162Z,2.73
2017-10-05T03:11:55.746Z,1.83
2017-10-05T03:14:30.393Z,2.33
2017-10-05T03:17:05.023Z,2.27
2017-10-05T03:19:39.556Z,2.20
2017-10-05T03:22:14.050Z,2.00
2017-10-05T03:24:48.489Z,1.97
2017-10-05T03:27:22.854Z,1.93
2017-10-05T03:29:57.130Z,1.87
2017-10-05T03:32:31.640Z,2.00
2017-10-05T03:35:15.898Z,1.47
2017-10-05T03:37:50.614Z,2.33
2017-10-05T03:40:24.471Z,3.17
2017-10-05T03:42:59.131Z,1.60
2017-10-05T03:45:33.716Z,1.90
2017-10-05T03:48:08.171Z,1.37
2017-10-05T03:50:42.550Z,1.80
2017-10-05T03:53:16.953Z,1.40
2017-10-05T03:55:51.454Z,1.97
2017-10-05T03:58:26.209Z,2.07
2017-10-05T04:01:00.436Z,2.30
2017-10-05T04:03:34.774Z,2.00
2017-10-05T04:06:08.393Z,1.60
2017-10-05T04:08:42.879Z,1.70
2017-10-05T04:11:17.467Z,1.73
2017-10-05T04:13:52.002Z,2.77
2017-10-05T04:16:27.158Z,1.80
2017-10-05T04:19:01.823Z,2.20
2017-10-05T04:21:36.411Z,1.77
2017-10-05T04:24:10.883Z,2.03
2017-10-05T04:26:45.632Z,2.03
2017-10-05T04:29:20.161Z,2.07
2017-10-05T04:31:54.678Z,2.23
2017-10-05T04:34:29.456Z,1.80
2017-10-05T04:37:04.039Z,3.07
2017-10-05T04:39:38.674Z,3.43
2017-10-05T04:42:12.874Z,2.40
2017-10-05T04:44:47.587Z,2.10
2017-10-05T04:47:22.830Z,1.73
2017-10-05T04:49:57.442Z,2.43
2017-10-05T04:52:32.062Z,2.23
2017-10-05T04:55:15.998Z,2.03
2017-10-05T04:57:50.584Z,2.03
2017-10-05T05:00:24.410Z,2.80
2017-10-05T05:02:58.983Z,1.70
2017-10-05T05:05:33.518Z,2.10
2017-10-05T05:08:07.985Z,1.80
2017-10-05T05:10:42.559Z,1.87
2017-10-05T05:13:17.058Z,1.90
2017-10-05T05:15:52.423Z,1.83
2017-10-05T05:18:26.983Z,2.20
2017-10-05T05:21:02.304Z,1.67
2017-10-05T05:23:37.539Z,1.83
2017-10-05T05:26:12.053Z,1.97
2017-10-05T05:28:46.525Z,2.20
2017-10-05T05:31:21.122Z,1.70
2017-10-05T05:33:55.270Z,1.70
2017-10-05T05:36:29.487Z,1.63
2017-10-05T05:39:03.055Z,2.33
2017-10-05T05:41:37.406Z,1.33
2017-10-05T05:44:11.976Z,1.90
2017-10-05T05:46:46.459Z,2.53
2017-10-05T05:49:20.722Z,1.80
2017-10-05T05:51:55.394Z,1.63
2017-10-05T05:54:30.167Z,2.10
2017-10-05T05:57:04.731Z,1.80
2017-10-05T05:59:38.990Z,1.83
2017-10-05T06:02:13.278Z,1.73
2017-10-05T06:04:47.541Z,2.63
2017-10-05T06:07:21.810Z,1.93
2017-10-05T06:09:56.121Z,1.90
2017-10-05T06:12:30.922Z,2.50
2017-10-05T06:15:15.034Z,2.03
2017-10-05T06:17:49.670Z,2.33
2017-10-05T06:20:24.176Z,3.07
2017-10-05T06:22:58.779Z,1.60
2017-10-05T06:25:33.302Z,2.50
2017-10-05T06:28:07.789Z,2.40
2017-10-05T06:30:42.014Z,1.70
2017-10-05T06:33:16.870Z,1.90
2017-10-05T06:35:51.386Z,1.83
2017-10-05T06:38:26.026Z,1.80
2017-10-05T06:41:00.623Z,1.93
2017-10-05T06:43:35.078Z,1.80
2017-10-05T06:46:09.662Z,2.27
2017-10-05T06:48:44.210Z,2.00
2017-10-05T06:51:25.461Z,2.10
2017-10-05T06:54:06.521Z,1.60
2017-10-05T06:56:41.002Z,2.43
2017-10-05T06:59:15.663Z,2.17
2017-10-05T07:01:50.309Z,2.50
2017-10-05T07:04:24.925Z,2.97
2017-10-05T07:06:59.550Z,2.30
2017-10-05T07:09:34.205Z,2.03
2017-10-05T07:12:08.745Z,2.43
2017-10-05T07:14:44.148Z,2.57
2017-10-05T07:17:18.614Z,2.87
2017-10-05T07:19:53.199Z,2.10
2017-10-05T07:22:27.758Z,2.97
2017-10-05T07:25:02.452Z,2.33
2017-10-05T07:27:40.922Z,2.63
2017-10-05T07:30:17.516Z,2.97
2017-10-05T07:32:52.883Z,2.13
2017-10-05T07:35:27.382Z,2.17
2017-10-05T07:38:01.818Z,1.90
2017-10-05T07:40:36.415Z,2.63
2017-10-05T07:43:11.101Z,2.40
2017-10-05T07:45:45.626Z,1.87
2017-10-05T07:48:20.302Z,2.00
2017-10-05T07:50:54.878Z,2.00
2017-10-05T07:53:29.487Z,2.40
2017-10-05T07:56:04.050Z,2.43
2017-10-05T07:58:38.517Z,2.00
2017-10-05T08:01:13.897Z,2.90
2017-10-05T08:03:48.230Z,2.80
2017-10-05T08:06:22.738Z,2.13
2017-10-05T08:08:57.231Z,2.57
2017-10-05T08:11:31.849Z,2.03
2017-10-05T08:14:06.491Z,2.27
2017-10-05T08:16:41.201Z,2.27
2017-10-05T08:19:15.889Z,2.00
2017-10-05T08:21:50.431Z,1.60
2017-10-05T08:24:24.844Z,3.33
2017-10-05T08:26:59.507Z,2.87
2017-10-05T08:29:33.957Z,1.90
2017-10-05T08:32:08.524Z,2.47
2017-10-05T08:34:43.013Z,2.30
2017-10-05T08:37:17.558Z,2.40
2017-10-05T08:39:52.161Z,2.17
2017-10-05T08:42:26.904Z,2.10
2017-10-05T08:45:01.496Z,2.47
2017-10-05T08:47:35.931Z,2.93
2017-10-05T08:50:16.466Z,3.27
2017-10-05T08:52:50.923Z,3.40
2017-10-05T08:55:25.506Z,3.27
2017-10-05T08:57:59.785Z,2.90
2017-10-05T09:00:34.298Z,2.40
2017-10-05T09:03:09.552Z,3.93
2017-10-05T09:05:43.989Z,2.90
2017-10-05T09:08:18.446Z,3.30
2017-10-05T09:10:53.093Z,2.57
2017-10-05T09:13:27.566Z,2.40
2017-10-05T09:16:02.747Z,3.03
2017-10-05T09:18:37.222Z,2.90
2017-10-05T09:21:11.910Z,3.40
2017-10-05T09:23:46.389Z,3.20
2017-10-05T09:26:20.970Z,3.50
2017-10-05T09:28:55.480Z,4.67
2017-10-05T09:31:30.030Z,4.10
2017-10-05T09:34:04.774Z,3.60
2017-10-05T09:36:39.375Z,2.90
2017-10-05T09:39:13.811Z,3.20
2017-10-05T09:41:48.362Z,2.80
2017-10-05T09:44:22.869Z,3.30
2017-10-05T09:46:57.455Z,3.90
2017-10-05T09:49:31.949Z,3.40
2017-10-05T09:52:06.537Z,3.40
2017-10-05T09:54:41.110Z,2.80
2017-10-05T09:57:15.644Z,2.73
2017-10-05T09:59:50.074Z,2.53
2017-10-05T10:02:24.730Z,2.80
2017-10-05T10:04:59.343Z,2.87
2017-10-05T10:07:33.970Z,3.47
2017-10-05T10:10:16.531Z,2.73
2017-10-05T10:12:51.221Z,3.03
2017-10-05T10:15:25.808Z,2.97
2017-10-05T10:18:00.297Z,2.60
2017-10-05T10:20:34.762Z,2.50
2017-10-05T10:23:09.271Z,2.77
2017-10-05T10:25:43.850Z,2.60
2017-10-05T10:28:18.552Z,3.30
2017-10-05T10:30:53.082Z,2.10
2017-10-05T10:33:27.668Z,2.40
2017-10-05T10:36:02.214Z,2.20
2017-10-05T10:38:36.873Z,1.80
2017-10-05T10:41:11.399Z,1.00
2017-10-05T10:43:45.878Z,1.80
2017-10-05T10:46:20.495Z,1.20
2017-10-05T10:48:55.146Z,0.90
2017-10-05T10:51:29.776Z,1.00
2017-10-05T10:54:05.087Z,1.13
2017-10-05T10:56:39.543Z,1.20
2017-10-05T10:59:14.186Z,1.00
2017-10-05T11:01:48.770Z,0.97
2017-10-05T11:04:23.384Z,1.13
2017-10-05T11:06:57.968Z,1.20
2017-10-05T11:09:32.536Z,0.73
2017-10-05T11:12:07.054Z,1.07
2017-10-05T11:14:41.710Z,1.00
2017-10-05T11:17:16.332Z,1.00
2017-10-05T11:19:50.864Z,1.07
2017-10-05T11:22:25.462Z,0.90
2017-10-05T11:25:00.073Z,1.27
2017-10-05T11:27:34.881Z,1.00
2017-10-05T11:30:13.886Z,1.20
2017-10-05T11:32:48.340Z,0.90
2017-10-05T11:35:22.882Z,1.00
2017-10-05T11:37:57.326Z,0.90
2017-10-05T11:40:37.948Z,1.03
2017-10-05T11:43:12.482Z,1.10
2017-10-05T11:45:47.850Z,1.03
2017-10-05T11:48:22.371Z,1.53
2017-10-05T11:50:56.916Z,1.47
2017-10-05T11:53:31.530Z,1.30
2017-10-05T11:56:06.152Z,1.70
2017-10-05T11:58:41.033Z,1.53
2017-10-05T12:01:15.557Z,1.43
2017-10-05T12:03:50.221Z,1.37
2017-10-05T12:06:24.736Z,1.10
2017-10-05T12:08:59.326Z,1.40
2017-10-05T12:11:34.634Z,1.30
2017-10-05T12:14:09.259Z,1.40
2017-10-05T12:16:43.806Z,1.10
2017-10-05T12:19:18.482Z,1.00
2017-10-05T12:21:53.095Z,0.90
2017-10-05T12:24:27.778Z,0.70
2017-10-05T12:27:02.291Z,0.97
2017-10-05T12:29:36.759Z,1.20
2017-10-05T12:32:11.380Z,0.80
2017-10-05T12:34:46.001Z,0.97
2017-10-05T12:37:20.617Z,1.23
2017-10-05T12:39:55.094Z,1.13
2017-10-05T12:42:29.643Z,1.30
2017-10-05T12:45:09.672Z,0.90
2017-10-05T12:47:44.114Z,1.43
2017-10-05T12:50:18.610Z,1.17
2017-10-05T12:52:53.239Z,1.63
2017-10-05T12:55:27.807Z,1.50
2017-10-05T12:58:02.271Z,1.13
2017-10-05T13:00:36.948Z,2.00
2017-10-05T13:03:11.611Z,1.80
2017-10-05T13:05:45.943Z,1.20
2017-10-05T13:08:20.653Z,1.60
2017-10-05T13:10:55.176Z,1.53
2017-10-05T13:13:29.807Z,1.40
2017-10-05T13:16:04.394Z,1.17
2017-10-05T13:18:39.095Z,1.00
2017-10-05T13:21:13.639Z,1.30
2017-10-05T13:23:48.283Z,1.30
2017-10-05T13:26:22.832Z,1.20
2017-10-05T13:28:57.533Z,1.20
2017-10-05T13:31:32.060Z,1.23
2017-10-05T13:34:06.607Z,1.57
2017-10-05T13:36:41.406Z,1.40
2017-10-05T13:39:15.909Z,1.60
2017-10-05T13:41:50.484Z,1.50
2017-10-05T13:44:25.054Z,1.40
2017-10-05T13:46:59.502Z,1.13
2017-10-05T13:49:34.035Z,1.47
2017-10-05T13:52:08.522Z,1.33
2017-10-05T13:54:43.034Z,1.67
2017-10-05T13:57:17.663Z,1.47
2017-10-05T13:59:52.351Z,0.97
2017-10-05T14:02:26.865Z,1.00
2017-10-05T14:05:01.816Z,1.13
2017-10-05T14:07:36.314Z,1.27
2017-10-05T14:10:11.555Z,1.13
2017-10-05T14:12:46.016Z,1.50
2017-10-05T14:15:20.600Z,1.80
2017-10-05T14:17:55.163Z,1.63
2017-10-05T14:20:29.830Z,1.40
2017-10-05T14:23:04.485Z,1.50
2017-10-05T14:25:39.000Z,1.50
2017-10-05T14:28:13.696Z,1.50
2017-10-05T14:30:48.242Z,0.90
2017-10-05T14:33:22.806Z,1.23
2017-10-05T14:35:58.087Z,1.37
2017-10-05T14:38:32.675Z,1.43
2017-10-05T14:41:07.253Z,1.30
2017-10-05T14:43:41.954Z,1.60
2017-10-05T14:46:16.506Z,1.43
2017-10-05T14:48:51.017Z,1.30
2017-10-05T14:51:25.695Z,1.10
2017-10-05T14:54:00.345Z,1.50
2017-10-05T14:56:34.918Z,1.47
2017-10-05T14:59:09.519Z,1.10
2017-10-05T15:01:44.070Z,1.30
2017-10-05T15:04:18.575Z,1.57
2017-10-05T15:06:53.270Z,1.53
2017-10-05T15:09:27.875Z,1.40
2017-10-05T15:12:02.437Z,1.57
2017-10-05T15:14:37.095Z,1.50
2017-10-05T15:17:11.616Z,1.30
2017-10-05T15:19:46.140Z,1.40
2017-10-05T15:22:20.782Z,1.07
2017-10-05T15:24:55.315Z,1.67
2017-10-05T15:27:29.895Z,1.13
2017-10-05T15:30:13.565Z,1.27
2017-10-05T15:32:48.222Z,1.40
2017-10-05T15:35:22.512Z,2.63
2017-10-05T15:37:57.048Z,1.60
2017-10-05T15:40:32.430Z,1.40
2017-10-05T15:43:07.106Z,1.40
2017-10-05T15:45:41.650Z,1.43
2017-10-05T15:48:17.033Z,1.73
2017-10-05T15:50:51.694Z,1.17
2017-10-05T15:53:26.314Z,1.70
2017-10-05T15:56:00.857Z,1.20
2017-10-05T15:58:35.454Z,1.00
2017-10-05T16:01:10.035Z,1.20
2017-10-05T16:03:44.717Z,1.27
2017-10-05T16:06:19.190Z,1.20
2017-10-05T16:08:53.627Z,1.63
2017-10-05T16:11:28.140Z,1.27
2017-10-05T16:14:02.778Z,1.00
2017-10-05T16:16:37.326Z,1.37
2017-10-05T16:19:11.999Z,1.10
2017-10-05T16:21:46.517Z,1.37
2017-10-05T16:24:21.162Z,1.40
2017-10-05T16:26:55.774Z,1.40
2017-10-05T16:29:30.407Z,1.30
2017-10-05T16:32:04.978Z,1.13
2017-10-05T16:34:40.093Z,1.30
2017-10-05T16:37:14.490Z,1.70
2017-10-05T16:39:48.953Z,1.67
2017-10-05T16:42:23.538Z,1.30
2017-10-05T16:44:58.202Z,1.70
2017-10-05T16:47:32.810Z,1.20
2017-10-05T16:50:13.795Z,1.53
2017-10-05T16:52:48.285Z,1.90
2017-10-05T16:55:22.874Z,2.30
2017-10-05T16:57:58.091Z,1.63
2017-10-05T17:00:33.394Z,1.57
2017-10-05T17:03:08.643Z,1.80
2017-10-05T17:05:43.063Z,1.57
2017-10-05T17:08:18.312Z,1.50
2017-10-05T17:10:52.846Z,1.60
2017-10-05T17:13:27.458Z,1.30
2017-10-05T17:16:02.079Z,1.30
2017-10-05T17:18:36.622Z,1.70
2017-10-05T17:21:11.300Z,1.30
2017-10-05T17:23:45.863Z,1.00
2017-10-05T17:26:20.369Z,1.20
2017-10-05T17:28:55.054Z,1.40
2017-10-05T17:31:29.629Z,1.47
2017-10-05T17:34:04.138Z,1.97
2017-10-05T17:36:38.763Z,1.50
2017-10-05T17:39:13.182Z,1.20
2017-10-05T17:41:47.712Z,1.50
2017-10-05T17:44:22.366Z,1.30
2017-10-05T17:46:56.914Z,1.20
2017-10-05T17:49:31.562Z,1.30
2017-10-05T17:52:06.125Z,1.23
2017-10-05T17:54:40.354Z,1.50
2017-10-05T17:57:14.969Z,1.57
2017-10-05T17:59:49.382Z,1.53
2017-10-05T18:02:23.970Z,1.60
2017-10-05T18:04:58.270Z,1.50
2017-10-05T18:07:32.823Z,1.33
2017-10-05T18:12:49.784Z,1.33
2017-10-05T18:15:25.171Z,2.20
2017-10-05T18:18:01.388Z,1.30
2017-10-05T18:20:35.951Z,2.00
2017-10-05T18:23:10.504Z,1.40
2017-10-05T18:25:45.089Z,1.80
2017-10-05T18:28:19.870Z,2.10
2017-10-05T18:30:54.383Z,1.43
2017-10-05T18:33:28.855Z,2.63
2017-10-05T18:36:03.348Z,2.20
2017-10-05T18:38:37.958Z,1.33
2017-10-05T18:41:12.639Z,1.47
2017-10-05T18:43:47.882Z,1.97
2017-10-05T18:46:22.455Z,1.40
2017-10-05T18:48:57.130Z,1.70
2017-10-05T18:51:31.746Z,2.00
2017-10-05T18:54:06.400Z,1.30
2017-10-05T18:56:40.981Z,1.67
2017-10-05T18:59:15.716Z,1.50
2017-10-05T19:01:50.323Z,2.10
2017-10-05T19:04:24.841Z,1.47
2017-10-05T19:06:59.307Z,1.60
2017-10-05T19:09:34.027Z,1.50
2017-10-05T19:12:09.268Z,1.83
2017-10-05T19:14:43.891Z,1.57
2017-10-05T19:17:18.478Z,1.50
2017-10-05T19:19:53.046Z,1.67
2017-10-05T19:22:27.575Z,1.87
2017-10-05T19:25:02.220Z,1.80
2017-10-05T19:27:36.827Z,2.10
2017-10-05T19:30:16.221Z,1.63
2017-10-05T19:32:50.668Z,1.33
2017-10-05T19:35:25.183Z,2.23
2017-10-05T19:37:59.855Z,1.87
2017-10-05T19:40:34.367Z,1.67
2017-10-05T19:43:08.909Z,3.00
2017-10-05T19:45:43.584Z,1.80
2017-10-05T19:48:18.231Z,2.73
2017-10-05T19:50:55.243Z,2.00
2017-10-05T19:53:29.892Z,2.43
2017-10-05T19:56:04.535Z,2.50
2017-10-05T19:58:39.016Z,1.57
2017-10-05T20:01:13.600Z,1.57
2017-10-05T20:03:48.115Z,2.00
2017-10-05T20:06:22.690Z,2.43
2017-10-05T20:08:57.437Z,1.97
2017-10-05T20:11:31.843Z,1.97
2017-10-05T20:14:08.020Z,1.37
2017-10-05T20:19:50.528Z,1.20
2017-10-05T20:22:27.709Z,1.80
2017-10-05T20:25:12.991Z,1.10
2017-10-05T20:27:53.115Z,1.17
2017-10-05T20:30:30.431Z,1.30
2017-10-05T20:33:07.951Z,1.17
2017-10-05T20:35:42.636Z,1.00
2017-10-05T20:38:17.262Z,1.10
2017-10-05T20:40:51.688Z,1.20
2017-10-05T20:43:26.390Z,0.90
2017-10-05T20:46:00.864Z,0.80
2017-10-05T20:48:35.378Z,1.10
2017-10-05T20:51:09.948Z,1.07
2017-10-05T20:53:44.179Z,1.00
2017-10-05T20:56:18.863Z,0.83
2017-10-05T20:58:53.634Z,0.83
2017-10-05T21:01:28.124Z,1.00
2017-10-05T21:04:02.791Z,1.03
2017-10-05T21:06:37.380Z,1.13
2017-10-05T21:09:12.057Z,1.23
2017-10-05T21:11:46.548Z,0.90
2017-10-05T21:14:21.084Z,2.00
2017-10-05T21:16:55.607Z,1.83
2017-10-05T21:19:30.215Z,1.07
2017-10-05T21:22:04.816Z,1.30
2017-10-05T21:24:39.523Z,1.07
2017-10-05T21:27:14.111Z,1.00
2017-10-05T21:29:48.791Z,1.40
2017-10-05T21:32:23.387Z,1.10
2017-10-05T21:34:58.054Z,1.00
2017-10-05T21:37:32.728Z,1.17
2017-10-05T21:40:07.240Z,1.47
2017-10-05T21:42:41.729Z,1.40
2017-10-05T21:45:16.273Z,1.27
2017-10-05T21:47:50.894Z,0.97
2017-10-05T21:50:25.487Z,1.57
2017-10-05T21:53:00.191Z,1.27
2017-10-05T21:55:34.671Z,0.93
2017-10-05T21:58:09.119Z,1.00
2017-10-05T22:00:43.284Z,1.43
2017-10-05T22:03:17.956Z,0.80
2017-10-05T22:05:52.511Z,0.90
2017-10-05T22:08:27.185Z,0.90
2017-10-05T22:11:01.814Z,1.00
2017-10-05T22:13:36.344Z,0.80
2017-10-05T22:16:11.019Z,0.90
2017-10-05T22:18:45.491Z,0.90
2017-10-05T22:21:20.135Z,0.80
2017-10-05T22:23:54.675Z,0.70
2017-10-05T22:26:29.270Z,1.10
2017-10-05T22:29:03.739Z,0.70
2017-10-05T22:31:38.261Z,0.90
2017-10-05T22:34:12.847Z,2.07
2017-10-05T22:36:47.397Z,1.23
2017-10-05T22:39:22.744Z,0.90
2017-10-05T22:41:57.439Z,0.80
2017-10-05T22:44:32.823Z,0.80
2017-10-05T22:47:07.340Z,0.70
2017-10-05T22:49:42.091Z,0.90
2017-10-05T22:52:16.583Z,0.70
2017-10-05T22:54:51.167Z,0.60
2017-10-05T22:57:25.823Z,0.70
2017-10-05T23:00:00.395Z,0.80
2017-10-05T23:02:34.987Z,0.80
2017-10-05T23:05:12.839Z,0.80
2017-10-05T23:07:47.424Z,0.60
2017-10-05T23:10:22.024Z,1.07
2017-10-05T23:12:56.711Z,0.90
2017-10-05T23:15:31.275Z,1.20
2017-10-05T23:18:05.931Z,0.70
2017-10-05T23:20:40.639Z,0.90
2017-10-05T23:23:15.245Z,1.17
2017-10-05T23:25:49.867Z,0.90
2017-10-05T23:28:24.496Z,0.93
2017-10-05T23:30:58.997Z,0.70
2017-10-05T23:33:33.652Z,0.73
2017-10-05T23:36:09.016Z,1.30
2017-10-05T23:38:43.535Z,0.80
2017-10-05T23:41:18.052Z,0.90
2017-10-05T23:43:52.619Z,0.77
2017-10-05T23:46:27.143Z,0.90
2017-10-05T23:49:01.867Z,1.03
2017-10-05T23:51:36.422Z,0.80
2017-10-05T23:54:11.179Z,0.90
2017-10-05T23:56:45.760Z,0.70
2017-10-05T23:59:20.255Z,0.70
